Koszalin, Poland
Current Conditions -  °F | °C
As of 3:20 AM on Friday 28 Nov 2014 (Local Time) from EKRN Reporting Station
Broken Clouds Broken Clouds  
Wind Chill: 32°   Ceiling: 1800
Heat Index: 39°   Visibility: 6mi
Dew Point: 34°   Wind: 13mph
Humidity: 81%   Direction: 100°E
Pressure: 30.21"   Gusts: NA
Location:  54.19°N, 16.18°E
Report Text: EKRN 280120Z AUTO 10011KT 9999NDV BKN018/// 04/01 Q1023
Loading
Personal Weather Stations






























Interactive Weather Map New forecast layout! Learn more

10-Day Weather Forecast

Advertisements
Track Severe Weather on mobile